createdAt,value
2023-05-02T00:01:22.339Z,20.60
2023-05-02T00:03:56.228Z,21.30
2023-05-02T00:06:29.694Z,21.60
2023-05-02T00:09:05.179Z,22.00
2023-05-02T00:11:38.685Z,22.20
2023-05-02T00:14:12.613Z,22.50
2023-05-02T00:16:46.202Z,22.20
2023-05-02T00:19:19.523Z,21.10
2023-05-02T00:21:53.652Z,21.00
2023-05-02T00:24:29.129Z,20.90
2023-05-02T00:27:03.024Z,21.30
2023-05-02T00:29:36.884Z,22.00
2023-05-02T00:32:11.796Z,22.40
2023-05-02T00:34:46.407Z,22.00
2023-05-02T00:37:20.044Z,22.10
2023-05-02T00:39:54.993Z,22.00
2023-05-02T00:42:28.179Z,22.00
2023-05-02T00:45:01.165Z,22.30
2023-05-02T00:47:34.728Z,22.00
2023-05-02T00:50:08.965Z,22.20
2023-05-02T00:52:42.854Z,21.90
2023-05-02T00:55:18.683Z,22.30
2023-05-02T00:57:52.621Z,22.70
2023-05-02T01:00:28.405Z,23.00
2023-05-02T01:03:14.668Z,23.00
2023-05-02T01:05:59.177Z,23.30
2023-05-02T01:08:40.044Z,23.20
2023-05-02T01:11:21.541Z,23.30
2023-05-02T01:13:57.582Z,23.30
2023-05-02T01:16:32.214Z,23.40
2023-05-02T01:19:09.703Z,23.50
2023-05-02T01:21:45.815Z,23.60
2023-05-02T01:24:29.278Z,23.90
2023-05-02T01:27:19.500Z,24.00
2023-05-02T01:29:57.224Z,24.20
2023-05-02T01:32:32.163Z,24.50
2023-05-02T01:35:09.053Z,24.60
2023-05-02T01:37:44.004Z,24.70
2023-05-02T01:40:21.738Z,24.90
2023-05-02T01:42:56.901Z,24.70
2023-05-02T01:45:33.818Z,24.70
2023-05-02T06:44:37.561Z,27.30
2023-05-02T06:47:12.134Z,27.70
2023-05-02T06:49:45.500Z,28.00
2023-05-02T06:55:06.357Z,28.30
2023-05-02T06:57:42.363Z,28.40
2023-05-02T07:00:18.749Z,28.80
2023-05-02T07:05:52.876Z,29.00
2023-05-02T07:08:27.564Z,28.90
2023-05-02T07:11:03.706Z,28.80
2023-05-02T07:13:36.895Z,28.20
2023-05-02T07:16:14.492Z,28.10
2023-05-02T07:18:48.488Z,27.90
2023-05-02T07:22:31.118Z,28.20
2023-05-02T07:28:10.413Z,28.60
2023-05-02T07:30:43.890Z,28.40
2023-05-02T07:33:21.241Z,28.40
2023-05-02T07:35:55.639Z,28.20
2023-05-02T07:38:29.507Z,28.40
2023-05-02T07:41:04.840Z,28.60
2023-05-02T07:43:39.713Z,28.70
2023-05-02T07:49:33.090Z,28.90
2023-05-02T07:52:07.017Z,28.90
2023-05-02T07:55:02.653Z,28.90
2023-05-02T07:57:45.244Z,28.70
2023-05-02T08:00:26.301Z,28.40
2023-05-02T08:03:01.071Z,28.30
2023-05-02T08:05:43.816Z,28.20
2023-05-02T08:08:22.211Z,27.80
2023-05-02T08:11:00.083Z,28.20
2023-05-02T08:13:39.076Z,28.20
2023-05-02T08:16:14.055Z,28.20
2023-05-02T08:18:48.370Z,28.40
2023-05-02T08:21:40.752Z,28.40
2023-05-02T08:24:17.833Z,28.30
2023-05-02T08:26:55.793Z,28.30
2023-05-02T08:29:29.688Z,28.30
2023-05-02T08:32:10.457Z,27.90
2023-05-02T08:34:45.220Z,27.80
2023-05-02T08:37:33.354Z,27.90
2023-05-02T08:40:12.086Z,28.00
2023-05-02T08:42:49.718Z,28.00
2023-05-02T08:45:28.014Z,27.90
2023-05-02T08:48:04.624Z,27.80
2023-05-02T08:50:42.914Z,27.90
2023-05-02T08:53:21.077Z,27.60
2023-05-02T08:55:55.656Z,27.30
2023-05-02T08:58:33.030Z,27.20
2023-05-02T09:01:18.543Z,26.80
2023-05-02T09:03:58.339Z,26.80
2023-05-02T09:06:34.035Z,26.70
2023-05-02T09:09:12.933Z,26.90
2023-05-02T09:11:51.927Z,27.00
2023-05-02T09:14:30.612Z,27.20
2023-05-02T09:17:11.463Z,27.30
2023-05-02T09:19:46.128Z,27.30
2023-05-02T09:22:36.202Z,27.10
2023-05-02T09:25:13.725Z,27.20
2023-05-02T09:28:03.754Z,27.00
2023-05-02T09:30:40.966Z,26.90
2023-05-02T09:33:16.974Z,26.90
2023-05-02T09:36:02.630Z,26.90
2023-05-02T09:38:42.230Z,26.50
2023-05-02T09:41:19.203Z,26.60
2023-05-02T09:44:03.545Z,26.80
2023-05-02T09:46:46.184Z,26.70
2023-05-02T09:49:23.279Z,26.50
2023-05-02T09:52:16.134Z,26.30
2023-05-02T09:54:52.853Z,26.20
2023-05-02T09:57:45.975Z,26.20
2023-05-02T10:00:23.791Z,26.20
2023-05-02T10:03:00.004Z,26.20
2023-05-02T10:05:38.287Z,26.30
2023-05-02T10:08:13.560Z,26.00
2023-05-02T10:10:50.883Z,25.90
2023-05-02T10:13:33.475Z,26.00
2023-05-02T10:16:10.338Z,26.00
2023-05-02T10:19:03.107Z,26.10
2023-05-02T10:21:39.261Z,25.80
2023-05-02T10:24:13.766Z,25.40
2023-05-02T10:26:50.858Z,25.40
2023-05-02T10:29:38.469Z,25.60
2023-05-02T10:32:20.540Z,25.70
2023-05-02T10:35:02.237Z,25.70
2023-05-02T10:37:49.369Z,25.60
2023-05-02T10:40:25.305Z,25.60
2023-05-02T10:43:08.138Z,25.40
2023-05-02T10:45:48.281Z,25.30
2023-05-02T10:48:26.857Z,25.30
2023-05-02T10:51:02.610Z,25.50
2023-05-02T10:53:43.100Z,25.50
2023-05-02T10:56:23.341Z,25.50
2023-05-02T10:59:33.810Z,25.50
2023-05-02T11:02:54.228Z,25.60
2023-05-02T11:05:30.101Z,25.50
2023-05-02T11:08:46.112Z,25.50
2023-05-02T11:11:47.687Z,25.40
2023-05-02T11:15:01.457Z,25.20
2023-05-02T11:18:09.998Z,25.10
2023-05-02T11:20:44.770Z,24.90
2023-05-02T11:23:29.265Z,24.90
2023-05-02T11:26:06.350Z,24.80
2023-05-02T11:28:57.172Z,24.70
2023-05-02T11:32:05.629Z,24.50
2023-05-02T11:34:53.967Z,24.50
2023-05-02T11:37:32.284Z,24.40
2023-05-02T11:40:26.386Z,24.20
2023-05-02T11:43:05.536Z,24.10
2023-05-02T11:45:43.932Z,24.20
2023-05-02T11:48:20.836Z,24.20
2023-05-02T11:51:01.111Z,24.10
2023-05-02T11:53:39.181Z,24.10
2023-05-02T11:56:12.985Z,24.10
2023-05-02T11:59:06.075Z,24.20
2023-05-02T12:01:45.057Z,24.40
2023-05-02T12:04:25.132Z,24.50
2023-05-02T12:07:10.210Z,24.30
2023-05-02T12:10:00.305Z,24.20
2023-05-02T12:12:37.875Z,24.20
2023-05-02T12:15:17.639Z,24.00
2023-05-02T12:17:59.350Z,23.90
2023-05-02T12:20:40.439Z,23.80
2023-05-02T12:23:28.272Z,23.80
2023-05-02T12:26:22.824Z,23.80
2023-05-02T12:29:01.403Z,23.70
2023-05-02T12:31:38.177Z,23.80
2023-05-02T12:34:15.784Z,23.60
2023-05-02T12:36:51.544Z,23.60
2023-05-02T12:39:39.912Z,23.60
2023-05-02T12:42:16.113Z,23.70
2023-05-02T12:44:54.296Z,23.60
2023-05-02T12:47:31.596Z,23.50
2023-05-02T12:50:07.560Z,23.50
2023-05-02T12:53:04.683Z,23.50
2023-05-02T12:55:44.892Z,23.50
2023-05-02T12:58:31.724Z,23.60
2023-05-02T13:01:08.563Z,23.60
2023-05-02T13:03:47.053Z,23.60
2023-05-02T13:06:28.082Z,23.60
2023-05-02T13:09:09.909Z,23.50
2023-05-02T13:11:46.480Z,23.70
2023-05-02T13:14:24.178Z,23.70
2023-05-02T13:17:02.553Z,23.80
2023-05-02T13:19:42.459Z,23.80
2023-05-02T13:22:25.643Z,23.90
2023-05-02T13:25:02.725Z,23.90
2023-05-02T13:27:40.613Z,23.90
2023-05-02T13:30:21.408Z,24.10
2023-05-02T13:32:57.538Z,24.20
2023-05-02T13:35:33.231Z,24.20
2023-05-02T13:38:13.294Z,24.20
2023-05-02T13:40:48.499Z,24.20
2023-05-02T13:43:28.858Z,24.20
2023-05-02T13:46:04.413Z,24.20
2023-05-02T13:48:41.686Z,24.20
2023-05-02T13:51:19.992Z,24.10
2023-05-02T13:54:00.625Z,24.10
2023-05-02T13:56:37.274Z,24.10
2023-05-02T13:59:15.710Z,23.80
2023-05-02T14:01:52.352Z,23.70
2023-05-02T14:04:29.590Z,23.80
2023-05-02T14:07:05.925Z,23.90
2023-05-02T14:09:43.081Z,23.80
2023-05-02T14:12:20.504Z,23.90
2023-05-02T14:14:57.535Z,23.90
2023-05-02T14:17:34.772Z,23.80
2023-05-02T14:20:09.928Z,23.70
2023-05-02T14:22:46.820Z,23.50
2023-05-02T14:25:24.602Z,23.40
2023-05-02T14:28:04.741Z,23.20
2023-05-02T14:30:42.479Z,23.20
2023-05-02T14:33:21.915Z,23.30
2023-05-02T14:36:11.249Z,23.20
2023-05-02T14:41:43.148Z,23.20
2023-05-02T14:44:19.604Z,23.20
2023-05-02T14:47:01.469Z,23.40
2023-05-02T14:49:40.692Z,23.50
2023-05-02T14:52:19.187Z,23.40
2023-05-02T14:54:56.505Z,23.50
2023-05-02T14:57:41.936Z,23.30
2023-05-02T15:00:27.484Z,23.30
2023-05-02T15:03:07.366Z,23.10
2023-05-02T15:05:43.368Z,23.20
2023-05-02T15:08:20.723Z,23.30
2023-05-02T15:10:56.393Z,23.20
2023-05-02T15:13:48.380Z,23.30
2023-05-02T15:16:24.876Z,23.20
2023-05-02T15:19:04.402Z,23.00
2023-05-02T15:21:41.604Z,22.90
2023-05-02T15:24:20.167Z,22.70
2023-05-02T15:26:55.710Z,22.50
2023-05-02T15:29:34.864Z,22.30
2023-05-02T15:32:20.082Z,22.20
2023-05-02T15:35:10.839Z,22.00
2023-05-02T15:37:49.410Z,21.40
2023-05-02T15:40:27.429Z,21.20
2023-05-02T15:43:04.564Z,21.20
2023-05-02T15:45:41.637Z,21.10
2023-05-02T15:48:21.825Z,21.10
2023-05-02T15:50:59.284Z,21.20
2023-05-02T15:53:38.511Z,21.20
2023-05-02T15:56:15.175Z,21.30
2023-05-02T15:58:51.279Z,21.00
2023-05-02T16:01:39.145Z,20.50
2023-05-02T16:04:13.052Z,20.50
2023-05-02T16:06:52.228Z,20.60
2023-05-02T16:09:36.063Z,20.50
2023-05-02T16:12:13.605Z,20.50
2023-05-02T16:14:47.971Z,20.50
2023-05-02T16:17:27.130Z,20.40
2023-05-02T16:20:03.576Z,20.50
2023-05-02T16:22:41.950Z,20.30
2023-05-02T16:25:19.392Z,20.30
2023-05-02T16:27:57.673Z,20.50
2023-05-02T16:30:35.159Z,20.30
2023-05-02T16:33:12.568Z,20.40
2023-05-02T16:35:48.174Z,20.40
2023-05-02T16:38:34.895Z,20.30
2023-05-02T16:41:21.979Z,20.30
2023-05-02T16:44:02.785Z,20.40
2023-05-02T16:46:48.904Z,20.30
2023-05-02T16:49:26.797Z,20.30
2023-05-02T16:52:04.673Z,20.40
2023-05-02T16:54:41.240Z,20.10
2023-05-02T16:57:21.254Z,20.20
2023-05-02T16:59:57.040Z,20.40
2023-05-02T17:02:31.370Z,20.50
2023-05-02T17:05:05.147Z,20.30
2023-05-02T17:07:41.970Z,20.70
2023-05-02T17:10:20.537Z,20.90
2023-05-02T17:13:00.129Z,20.90
2023-05-02T17:15:36.468Z,20.80
2023-05-02T17:18:13.422Z,20.70
2023-05-02T17:20:55.150Z,20.80
2023-05-02T17:23:32.171Z,20.70
2023-05-02T17:26:15.936Z,20.70
2023-05-02T17:28:52.875Z,20.70
2023-05-02T17:31:31.352Z,20.60
2023-05-02T17:34:06.241Z,20.50
2023-05-02T17:36:47.152Z,20.50
2023-05-02T17:39:24.374Z,20.60
2023-05-02T17:42:08.528Z,20.60
2023-05-02T17:44:42.292Z,20.60
2023-05-02T17:47:18.495Z,20.50
2023-05-02T17:49:57.857Z,20.50
2023-05-02T17:52:33.347Z,20.60
2023-05-02T17:55:08.244Z,20.60
2023-05-02T17:57:51.415Z,20.70
2023-05-02T18:00:27.954Z,20.70
2023-05-02T18:03:07.714Z,20.50
2023-05-02T18:05:49.363Z,19.90
2023-05-02T18:08:28.343Z,19.90
2023-05-02T18:11:06.836Z,20.20
2023-05-02T18:13:46.952Z,20.30
2023-05-02T18:16:26.871Z,20.40
2023-05-02T18:19:05.436Z,20.30
2023-05-02T18:21:40.540Z,20.40
2023-05-02T18:24:14.816Z,20.10
2023-05-02T18:26:48.960Z,20.00
2023-05-02T18:29:27.172Z,20.00
2023-05-02T18:32:03.313Z,19.90
2023-05-02T18:34:41.115Z,20.00
2023-05-02T18:37:17.003Z,20.00
2023-05-02T18:39:51.543Z,20.00
2023-05-02T18:42:26.756Z,20.30
2023-05-02T18:45:04.393Z,20.20
2023-05-02T18:47:39.783Z,20.10
2023-05-02T18:50:15.154Z,20.10
2023-05-02T18:52:52.539Z,20.10
2023-05-02T18:55:28.495Z,19.90
2023-05-02T18:58:05.827Z,19.70
2023-05-02T19:00:46.004Z,19.70
2023-05-02T19:03:21.817Z,19.70
2023-05-02T19:06:04.349Z,19.60
2023-05-02T19:08:39.666Z,19.80
2023-05-02T19:11:14.153Z,19.80
2023-05-02T19:13:52.490Z,19.90
2023-05-02T19:16:33.068Z,19.70
2023-05-02T19:19:10.135Z,19.70
2023-05-02T19:21:44.929Z,19.90
2023-05-02T19:24:21.521Z,19.90
2023-05-02T19:26:56.328Z,19.80
2023-05-02T19:29:33.098Z,19.90
2023-05-02T19:32:09.505Z,19.80
2023-05-02T19:34:49.842Z,19.70
2023-05-02T19:37:24.569Z,19.60
2023-05-02T19:40:00.785Z,19.40
2023-05-02T19:42:36.089Z,19.40
2023-05-02T19:45:15.662Z,19.30
2023-05-02T19:47:54.465Z,19.40
2023-05-02T19:50:31.172Z,19.30
2023-05-02T19:53:06.245Z,19.30
2023-05-02T19:55:47.986Z,19.50
2023-05-02T19:58:29.437Z,19.60
2023-05-02T20:01:09.509Z,19.70
2023-05-02T20:03:44.795Z,19.50
2023-05-02T20:06:20.671Z,19.60
2023-05-02T20:08:56.230Z,19.90
2023-05-02T20:11:32.658Z,19.70
2023-05-02T20:14:10.180Z,19.70
2023-05-02T20:16:48.449Z,19.70
2023-05-02T20:19:27.157Z,19.70
2023-05-02T20:22:03.426Z,19.60
2023-05-02T20:24:39.392Z,19.60
2023-05-02T20:27:21.591Z,19.50
2023-05-02T20:30:00.739Z,19.50
2023-05-02T20:32:34.200Z,19.60
2023-05-02T20:35:11.193Z,19.80
2023-05-02T20:37:48.084Z,19.60
2023-05-02T20:40:24.753Z,19.70
2023-05-02T20:43:13.735Z,19.60
2023-05-02T20:46:03.779Z,19.60
2023-05-02T20:48:42.382Z,19.50
2023-05-02T20:51:18.764Z,19.60
2023-05-02T20:53:52.468Z,19.70
2023-05-02T20:56:26.365Z,19.90
2023-05-02T20:59:01.386Z,20.00
2023-05-02T21:01:36.103Z,20.10
2023-05-02T21:04:13.138Z,20.40
2023-05-02T21:06:55.327Z,20.50
2023-05-02T21:09:33.018Z,20.50
2023-05-02T21:12:10.498Z,20.60
2023-05-02T21:14:49.326Z,20.50
2023-05-02T21:17:28.144Z,20.50
2023-05-02T21:20:02.100Z,20.70
2023-05-02T21:22:38.995Z,20.50
2023-05-02T21:25:20.827Z,20.40
2023-05-02T21:28:01.506Z,20.40
2023-05-02T21:30:38.572Z,20.50
2023-05-02T21:33:16.296Z,20.60
2023-05-02T21:35:53.683Z,20.30
2023-05-02T21:38:33.612Z,20.40
2023-05-02T21:41:11.538Z,20.60
2023-05-02T21:43:45.275Z,20.70
2023-05-02T21:46:25.004Z,20.60
2023-05-02T21:49:02.680Z,20.30
2023-05-02T21:51:37.309Z,20.50
2023-05-02T21:54:16.806Z,20.60
2023-05-02T21:56:53.355Z,20.30
2023-05-02T21:59:33.232Z,20.60
2023-05-02T22:02:08.250Z,20.70
2023-05-02T22:04:49.891Z,20.60
2023-05-02T22:07:29.433Z,20.40
2023-05-02T22:10:10.648Z,20.50
2023-05-02T22:12:46.927Z,20.40
2023-05-02T22:15:24.420Z,20.60
2023-05-02T22:18:00.348Z,20.40
2023-05-02T22:20:38.275Z,20.20
2023-05-02T22:23:18.438Z,20.20
2023-05-02T22:25:59.811Z,20.30
2023-05-02T22:28:34.713Z,20.30
2023-05-02T22:31:12.301Z,20.10
2023-05-02T22:36:44.724Z,19.80
2023-05-02T22:39:19.543Z,19.90
2023-05-02T22:41:54.777Z,20.20
2023-05-02T22:44:32.176Z,20.20
2023-05-02T22:47:12.197Z,20.20
2023-05-02T22:49:50.923Z,20.20
2023-05-02T22:52:28.681Z,20.10
2023-05-02T22:55:03.075Z,20.20
2023-05-02T22:57:41.139Z,20.30
2023-05-02T23:00:19.703Z,20.20
2023-05-02T23:03:02.933Z,20.30
2023-05-02T23:05:37.829Z,20.30
2023-05-02T23:08:12.996Z,20.30
2023-05-02T23:10:49.399Z,20.20
2023-05-02T23:13:28.086Z,20.20
2023-05-02T23:16:07.749Z,20.20
2023-05-02T23:18:42.250Z,20.10
2023-05-02T23:21:25.324Z,19.80
2023-05-02T23:24:04.144Z,19.70
2023-05-02T23:26:40.047Z,19.90
2023-05-02T23:29:21.512Z,19.90
2023-05-02T23:32:04.605Z,19.70
2023-05-02T23:34:45.226Z,19.90
2023-05-02T23:37:23.483Z,20.10
2023-05-02T23:40:02.116Z,20.00
2023-05-02T23:42:40.931Z,20.20
2023-05-02T23:45:23.187Z,20.20
2023-05-02T23:48:04.358Z,20.10
2023-05-02T23:50:42.109Z,20.20
2023-05-02T23:53:16.685Z,20.30
2023-05-02T23:55:52.570Z,20.60
2023-05-02T23:58:34.415Z,20.70
